createdAt,value
2019-03-31T00:01:52.890Z,24.05
2019-03-31T00:04:26.383Z,23.70
2019-03-31T00:06:59.749Z,25.05
2019-03-31T00:09:33.149Z,25.37
2019-03-31T00:12:07.883Z,23.90
2019-03-31T00:14:41.380Z,22.90
2019-03-31T00:17:14.791Z,23.32
2019-03-31T00:19:48.254Z,23.32
2019-03-31T00:22:21.610Z,25.92
2019-03-31T00:24:55.262Z,29.27
2019-03-31T00:27:28.576Z,24.72
2019-03-31T00:30:02.157Z,25.95
2019-03-31T00:32:35.608Z,26.33
2019-03-31T00:35:09.049Z,25.37
2019-03-31T00:37:42.358Z,25.25
2019-03-31T00:40:15.907Z,28.65
2019-03-31T00:42:49.286Z,22.98
2019-03-31T00:45:22.762Z,23.92
2019-03-31T00:47:56.361Z,27.48
2019-03-31T00:50:30.625Z,25.17
2019-03-31T00:53:04.318Z,25.23
2019-03-31T00:55:37.793Z,24.82
2019-03-31T00:58:11.334Z,22.75
2019-03-31T01:00:44.758Z,24.80
2019-03-31T01:03:19.913Z,28.00
2019-03-31T01:05:53.534Z,27.15
2019-03-31T01:08:27.219Z,31.48
2019-03-31T01:11:00.619Z,25.75
2019-03-31T01:13:34.132Z,25.20
2019-03-31T01:16:07.637Z,24.92
2019-03-31T01:18:41.218Z,24.80
2019-03-31T01:21:14.723Z,26.57
2019-03-31T01:23:48.557Z,26.33
2019-03-31T01:26:21.864Z,27.32
2019-03-31T01:28:55.467Z,27.15
2019-03-31T01:31:29.116Z,28.40
2019-03-31T01:34:02.554Z,28.75
2019-03-31T01:36:37.103Z,26.62
2019-03-31T01:39:10.507Z,25.02
2019-03-31T01:41:44.110Z,21.12
2019-03-31T01:44:17.636Z,24.85
2019-03-31T01:46:51.037Z,24.27
2019-03-31T01:49:24.392Z,23.70
2019-03-31T01:51:57.893Z,25.80
2019-03-31T01:54:31.345Z,24.23
2019-03-31T01:57:05.404Z,23.38
2019-03-31T01:59:39.028Z,23.60
2019-03-31T02:02:12.321Z,25.08
2019-03-31T02:04:45.770Z,26.55
2019-03-31T02:07:19.115Z,25.08
2019-03-31T02:09:52.503Z,24.25
2019-03-31T02:12:26.158Z,25.30
2019-03-31T02:14:59.594Z,28.40
2019-03-31T02:17:32.952Z,26.85
2019-03-31T02:20:06.454Z,23.90
2019-03-31T02:22:39.834Z,22.17
2019-03-31T02:25:13.250Z,24.98
2019-03-31T02:27:46.682Z,21.27
2019-03-31T02:30:20.054Z,22.37
2019-03-31T02:32:53.618Z,22.27
2019-03-31T02:35:27.021Z,20.40
2019-03-31T02:38:00.446Z,19.70
2019-03-31T02:40:33.990Z,21.75
2019-03-31T02:43:07.179Z,19.23
2019-03-31T02:45:40.593Z,18.90
2019-03-31T02:48:14.103Z,19.98
2019-03-31T02:50:48.780Z,18.25
2019-03-31T02:53:23.467Z,17.52
2019-03-31T02:55:56.916Z,17.90
2019-03-31T02:58:30.413Z,20.12
2019-03-31T03:01:03.815Z,16.02
2019-03-31T03:03:38.760Z,20.15
2019-03-31T03:06:12.180Z,15.93
2019-03-31T03:08:46.375Z,16.02
2019-03-31T03:11:19.712Z,16.87
2019-03-31T03:13:53.400Z,17.20
2019-03-31T03:16:26.712Z,15.35
2019-03-31T03:19:01.260Z,17.25
2019-03-31T03:21:34.567Z,13.65
2019-03-31T03:24:08.173Z,12.30
2019-03-31T03:26:41.523Z,14.43
2019-03-31T03:29:14.975Z,12.98
2019-03-31T03:31:50.465Z,11.33
2019-03-31T03:34:25.353Z,11.68
2019-03-31T03:36:58.841Z,11.73
2019-03-31T03:39:32.289Z,12.60
2019-03-31T03:42:05.751Z,10.53
2019-03-31T03:44:39.091Z,10.32
2019-03-31T03:47:12.481Z,10.72
2019-03-31T03:49:46.170Z,11.20
2019-03-31T03:52:19.566Z,10.93
2019-03-31T03:54:52.961Z,11.53
2019-03-31T03:57:26.372Z,8.23
2019-03-31T03:59:59.737Z,8.73
2019-03-31T04:02:33.112Z,6.50
2019-03-31T04:05:06.448Z,9.95
2019-03-31T04:07:40.004Z,7.15
2019-03-31T04:10:45.199Z,9.58
2019-03-31T04:13:18.605Z,9.18
2019-03-31T04:15:52.006Z,8.08
2019-03-31T04:18:25.783Z,7.58
2019-03-31T04:20:59.142Z,6.08
2019-03-31T04:23:32.545Z,6.70
2019-03-31T04:26:05.994Z,9.63
2019-03-31T04:28:39.371Z,8.03
2019-03-31T04:31:12.878Z,5.75
2019-03-31T04:33:51.784Z,5.97
2019-03-31T04:36:21.420Z,6.53
2019-03-31T04:38:54.832Z,7.95
2019-03-31T04:41:28.183Z,6.87
2019-03-31T04:44:01.517Z,3.62
2019-03-31T04:46:35.287Z,4.25
2019-03-31T04:49:08.649Z,5.60
2019-03-31T04:51:42.027Z,6.70
2019-03-31T04:54:15.392Z,6.25
2019-03-31T04:56:48.811Z,4.90
2019-03-31T04:59:22.142Z,5.55
2019-03-31T05:01:55.921Z,4.92
2019-03-31T05:04:29.361Z,4.62
2019-03-31T05:07:04.310Z,6.30
2019-03-31T05:09:37.904Z,5.40
2019-03-31T05:12:11.435Z,4.22
2019-03-31T05:14:45.064Z,5.92
2019-03-31T05:17:18.417Z,4.92
2019-03-31T05:19:52.218Z,5.58
2019-03-31T05:22:25.667Z,4.12
2019-03-31T05:24:59.077Z,4.70
2019-03-31T05:27:32.427Z,3.50
2019-03-31T05:30:06.019Z,2.52
2019-03-31T05:32:39.742Z,4.17
2019-03-31T05:35:13.328Z,5.47
2019-03-31T05:37:51.371Z,4.05
2019-03-31T05:40:21.952Z,4.95
2019-03-31T05:42:55.458Z,5.30
2019-03-31T05:45:29.306Z,2.85
2019-03-31T05:48:02.796Z,4.15
2019-03-31T05:50:36.246Z,3.90
2019-03-31T05:53:10.002Z,5.10
2019-03-31T05:55:43.323Z,4.15
2019-03-31T05:58:18.328Z,4.90
2019-03-31T06:00:53.033Z,4.55
2019-03-31T06:03:26.490Z,4.08
2019-03-31T06:06:00.022Z,3.95
2019-03-31T06:08:33.584Z,3.60
2019-03-31T06:11:07.113Z,2.75
2019-03-31T06:13:40.513Z,4.17
2019-03-31T06:16:13.838Z,4.67
2019-03-31T06:18:47.287Z,4.67
2019-03-31T06:21:20.615Z,3.47
2019-03-31T06:23:54.019Z,5.47
2019-03-31T06:26:27.340Z,4.75
2019-03-31T06:29:00.682Z,3.45
2019-03-31T06:31:34.192Z,4.95
2019-03-31T06:34:08.037Z,5.33
2019-03-31T06:36:41.511Z,2.77
2019-03-31T06:39:14.941Z,4.22
2019-03-31T06:41:48.348Z,3.83
2019-03-31T06:44:21.767Z,5.62
2019-03-31T06:46:55.204Z,4.87
2019-03-31T06:49:30.100Z,4.37
2019-03-31T06:52:03.568Z,5.97
2019-03-31T06:54:37.010Z,5.33
2019-03-31T06:57:10.344Z,4.60
2019-03-31T06:59:44.410Z,5.08
2019-03-31T07:02:17.741Z,4.10
2019-03-31T07:05:00.913Z,4.58
2019-03-31T07:07:27.186Z,3.37
2019-03-31T07:10:00.529Z,4.25
2019-03-31T07:12:33.999Z,4.55
2019-03-31T07:15:08.170Z,4.62
2019-03-31T07:17:41.566Z,4.33
2019-03-31T07:20:15.203Z,2.60
2019-03-31T07:22:48.635Z,12.65
2019-03-31T07:25:22.136Z,3.90
2019-03-31T07:27:55.617Z,4.15
2019-03-31T07:30:29.089Z,4.78
2019-03-31T07:33:03.888Z,3.52
2019-03-31T07:35:39.088Z,4.40
2019-03-31T07:38:14.129Z,6.03
2019-03-31T07:40:47.711Z,3.37
2019-03-31T07:43:21.165Z,4.72
2019-03-31T07:45:56.002Z,3.75
2019-03-31T07:48:31.234Z,4.78
2019-03-31T07:51:04.666Z,3.17
2019-03-31T07:53:38.435Z,3.22
2019-03-31T07:56:11.936Z,3.75
2019-03-31T07:58:45.303Z,3.30
2019-03-31T08:01:19.496Z,3.90
2019-03-31T08:03:52.921Z,2.92
2019-03-31T08:06:26.409Z,2.22
2019-03-31T08:08:59.932Z,5.30
2019-03-31T08:11:33.811Z,5.05
2019-03-31T08:14:07.554Z,3.05
2019-03-31T08:16:40.889Z,4.60
2019-03-31T08:19:14.272Z,3.55
2019-03-31T08:21:47.796Z,4.22
2019-03-31T08:24:21.221Z,3.50
2019-03-31T08:26:54.686Z,3.33
2019-03-31T08:29:29.698Z,2.50
2019-03-31T08:32:03.127Z,1.55
2019-03-31T08:34:36.796Z,7.15
2019-03-31T08:37:10.202Z,4.42
2019-03-31T08:39:43.690Z,2.08
2019-03-31T08:42:17.925Z,4.20
2019-03-31T08:44:53.438Z,3.15
2019-03-31T08:47:26.927Z,2.92
2019-03-31T08:50:02.339Z,2.25
2019-03-31T08:52:35.707Z,2.75
2019-03-31T08:55:09.044Z,3.37
2019-03-31T08:57:42.819Z,1.22
2019-03-31T09:00:16.296Z,1.22
2019-03-31T09:02:49.832Z,1.45
2019-03-31T09:05:23.352Z,2.02
2019-03-31T09:07:56.821Z,2.05
2019-03-31T09:10:30.172Z,2.62
2019-03-31T09:13:03.571Z,3.33
2019-03-31T09:15:36.930Z,2.52
2019-03-31T09:18:10.577Z,5.05
2019-03-31T09:20:43.900Z,3.22
2019-03-31T09:23:17.268Z,4.85
2019-03-31T09:25:50.582Z,2.42
2019-03-31T09:28:24.036Z,2.42
2019-03-31T09:30:57.379Z,1.52
2019-03-31T09:33:30.734Z,4.33
2019-03-31T09:36:15.416Z,2.83
2019-03-31T09:38:39.277Z,1.77
2019-03-31T09:41:12.822Z,5.25
2019-03-31T09:43:46.252Z,5.03
2019-03-31T09:46:21.630Z,6.25
2019-03-31T09:48:55.452Z,4.33
2019-03-31T09:51:29.266Z,2.60
2019-03-31T09:54:03.139Z,4.62
2019-03-31T09:56:36.557Z,4.90
2019-03-31T09:59:10.545Z,4.15
2019-03-31T10:01:47.193Z,9.45
2019-03-31T10:04:20.793Z,10.53
2019-03-31T10:06:55.950Z,11.22
2019-03-31T10:09:29.645Z,11.88
2019-03-31T10:12:03.203Z,12.15
2019-03-31T10:14:37.077Z,9.63
2019-03-31T10:17:10.532Z,10.72
2019-03-31T10:19:44.195Z,8.93
2019-03-31T10:22:19.100Z,8.83
2019-03-31T10:24:52.649Z,11.20
2019-03-31T10:27:27.617Z,12.05
2019-03-31T10:30:00.975Z,10.82
2019-03-31T10:32:34.456Z,15.10
2019-03-31T10:35:07.840Z,13.38
2019-03-31T10:37:41.440Z,15.38
2019-03-31T10:40:14.963Z,16.52
2019-03-31T10:42:48.535Z,20.15
2019-03-31T10:45:21.914Z,19.00
2019-03-31T10:47:55.616Z,16.45
2019-03-31T10:50:29.120Z,16.75
2019-03-31T10:53:02.610Z,17.80
2019-03-31T10:55:35.867Z,19.02
2019-03-31T10:58:10.874Z,18.42
2019-03-31T11:00:47.544Z,17.62
2019-03-31T11:03:21.918Z,13.90
2019-03-31T11:05:55.436Z,14.43
2019-03-31T11:08:29.891Z,10.25
2019-03-31T11:11:03.588Z,13.30
2019-03-31T11:13:37.463Z,11.97
2019-03-31T11:16:10.893Z,11.85
2019-03-31T11:18:44.792Z,10.55
2019-03-31T11:21:18.595Z,10.10
2019-03-31T11:23:52.115Z,11.63
2019-03-31T11:26:27.149Z,14.10
2019-03-31T11:29:00.636Z,8.28
2019-03-31T11:31:34.572Z,10.45
2019-03-31T11:34:08.107Z,10.95
2019-03-31T11:36:41.656Z,9.48
2019-03-31T11:39:16.484Z,8.30
2019-03-31T11:41:50.515Z,9.90
2019-03-31T11:44:27.421Z,8.35
2019-03-31T11:46:59.282Z,8.10
2019-03-31T11:49:32.611Z,8.25
2019-03-31T11:52:06.219Z,6.17
2019-03-31T11:54:39.584Z,5.15
2019-03-31T11:57:12.915Z,5.78
2019-03-31T11:59:49.570Z,5.40
2019-03-31T12:02:27.309Z,5.65
2019-03-31T12:04:57.768Z,6.40
2019-03-31T12:07:45.730Z,4.12
2019-03-31T12:10:08.637Z,4.90
2019-03-31T12:12:42.266Z,5.10
2019-03-31T12:15:15.711Z,8.63
2019-03-31T12:17:51.202Z,4.92
2019-03-31T12:20:24.679Z,5.08
2019-03-31T12:22:58.438Z,4.37
2019-03-31T12:25:31.923Z,5.42
2019-03-31T12:28:05.147Z,5.62
2019-03-31T12:30:38.774Z,5.92
2019-03-31T12:33:12.247Z,3.47
2019-03-31T12:35:45.605Z,5.35
2019-03-31T12:38:19.011Z,7.35
2019-03-31T12:40:52.704Z,3.27
2019-03-31T12:43:26.124Z,4.20
2019-03-31T12:45:59.493Z,3.50
2019-03-31T12:48:32.992Z,3.33
2019-03-31T12:51:06.522Z,3.75
2019-03-31T12:53:39.784Z,4.22
2019-03-31T12:56:13.408Z,5.75
2019-03-31T12:58:46.918Z,4.33
2019-03-31T13:01:21.420Z,10.43
2019-03-31T13:03:54.811Z,2.30
2019-03-31T13:06:28.138Z,2.87
2019-03-31T13:09:01.549Z,5.62
2019-03-31T13:11:36.354Z,4.75
2019-03-31T13:14:09.671Z,3.45
2019-03-31T13:16:44.048Z,3.62
2019-03-31T13:19:17.422Z,3.25
2019-03-31T13:21:50.715Z,3.12
2019-03-31T13:24:24.076Z,3.45
2019-03-31T13:26:59.319Z,4.28
2019-03-31T13:29:32.689Z,3.90
2019-03-31T13:32:06.183Z,2.05
2019-03-31T13:34:39.596Z,6.17
2019-03-31T13:37:13.373Z,3.55
2019-03-31T13:39:46.739Z,4.67
2019-03-31T13:42:20.088Z,4.28
2019-03-31T13:44:55.136Z,3.83
2019-03-31T13:47:28.457Z,2.77
2019-03-31T13:50:02.216Z,2.87
2019-03-31T13:52:35.628Z,3.70
2019-03-31T13:55:09.262Z,1.72
2019-03-31T13:57:44.119Z,2.70
2019-03-31T14:00:26.776Z,2.80
2019-03-31T14:02:58.585Z,4.90
2019-03-31T14:05:32.004Z,2.45
2019-03-31T14:08:05.329Z,2.10
2019-03-31T14:10:38.719Z,2.50
2019-03-31T14:13:12.040Z,2.17
2019-03-31T14:15:45.410Z,4.65
2019-03-31T14:18:18.937Z,3.00
2019-03-31T14:20:52.273Z,3.77
2019-03-31T14:23:25.699Z,2.10
2019-03-31T14:25:59.137Z,3.92
2019-03-31T14:28:32.525Z,3.60
2019-03-31T14:31:06.112Z,3.35
2019-03-31T14:33:41.148Z,5.03
2019-03-31T14:36:14.946Z,2.83
2019-03-31T14:38:48.280Z,3.95
2019-03-31T14:41:21.654Z,2.27
2019-03-31T14:43:55.016Z,3.55
2019-03-31T14:46:28.687Z,2.55
2019-03-31T14:49:02.123Z,2.22
2019-03-31T14:51:35.480Z,1.52
2019-03-31T14:54:08.786Z,3.37
2019-03-31T14:56:42.195Z,4.65
2019-03-31T14:59:15.784Z,3.60
2019-03-31T15:01:49.595Z,3.87
2019-03-31T15:04:23.249Z,3.17
2019-03-31T15:06:56.796Z,2.45
2019-03-31T15:09:30.268Z,1.95
2019-03-31T15:12:04.259Z,4.05
2019-03-31T15:14:53.112Z,3.37
2019-03-31T15:17:59.229Z,3.27
2019-03-31T15:20:47.599Z,3.02
2019-03-31T15:23:38.788Z,2.37
2019-03-31T15:26:20.582Z,11.75
2019-03-31T15:28:57.087Z,23.05
2019-03-31T15:31:30.517Z,24.02
2019-03-31T15:34:04.203Z,21.73
2019-03-31T15:36:37.744Z,13.72
2019-03-31T15:39:12.189Z,10.20
2019-03-31T15:41:47.326Z,14.03
2019-03-31T15:44:24.265Z,14.03
2019-03-31T15:46:58.290Z,9.43
2019-03-31T15:49:31.754Z,8.43
2019-03-31T15:52:08.854Z,6.75
2019-03-31T15:54:42.199Z,8.15
2019-03-31T15:57:15.770Z,8.35
2019-03-31T15:59:53.498Z,6.45
2019-03-31T16:02:27.208Z,6.58
2019-03-31T16:05:01.218Z,7.00
2019-03-31T16:07:34.413Z,6.92
2019-03-31T16:10:08.223Z,7.70
2019-03-31T16:12:41.688Z,6.65
2019-03-31T16:15:15.754Z,5.03
2019-03-31T16:17:49.427Z,6.08
2019-03-31T16:20:23.127Z,5.70
2019-03-31T16:22:56.705Z,4.45
2019-03-31T16:25:30.147Z,4.75
2019-03-31T16:28:05.369Z,5.83
2019-03-31T16:30:38.687Z,4.58
2019-03-31T16:33:12.107Z,3.33
2019-03-31T16:35:46.011Z,6.80
2019-03-31T16:38:19.462Z,2.95
2019-03-31T16:40:58.303Z,4.92
2019-03-31T16:43:32.390Z,4.28
2019-03-31T16:46:05.813Z,4.20
2019-03-31T16:48:39.621Z,6.80
2019-03-31T16:51:13.368Z,5.17
2019-03-31T16:53:46.992Z,3.55
2019-03-31T16:56:21.375Z,3.22
2019-03-31T16:58:54.810Z,6.58
2019-03-31T17:01:28.539Z,2.87
2019-03-31T17:04:02.323Z,5.28
2019-03-31T17:06:36.783Z,4.65
2019-03-31T17:09:10.215Z,2.75
2019-03-31T17:11:45.345Z,5.53
2019-03-31T17:14:18.880Z,8.08
2019-03-31T17:16:52.881Z,4.33
2019-03-31T17:19:27.119Z,4.37
2019-03-31T17:22:00.766Z,5.90
2019-03-31T17:24:34.432Z,2.52
2019-03-31T17:27:07.925Z,6.85
2019-03-31T17:29:41.520Z,10.15
2019-03-31T17:32:14.858Z,4.35
2019-03-31T17:34:48.636Z,8.35
2019-03-31T17:37:22.133Z,2.42
2019-03-31T17:40:05.841Z,5.60
2019-03-31T17:42:30.676Z,5.80
2019-03-31T17:45:05.828Z,8.58
2019-03-31T17:47:39.247Z,3.58
2019-03-31T17:50:13.123Z,5.67
2019-03-31T17:52:46.666Z,5.22
2019-03-31T17:55:20.291Z,5.25
2019-03-31T17:57:54.043Z,4.50
2019-03-31T18:00:27.422Z,5.05
2019-03-31T18:03:01.090Z,6.03
2019-03-31T18:05:34.519Z,4.03
2019-03-31T18:08:08.138Z,5.47
2019-03-31T18:10:42.005Z,3.10
2019-03-31T18:13:15.525Z,5.67
2019-03-31T18:15:49.055Z,7.55
2019-03-31T18:18:24.170Z,5.45
2019-03-31T18:20:57.863Z,3.08
2019-03-31T18:23:31.340Z,3.22
2019-03-31T18:26:06.044Z,5.15
2019-03-31T18:28:39.562Z,4.33
2019-03-31T18:31:29.887Z,2.35
2019-03-31T18:34:15.068Z,5.28
2019-03-31T18:36:48.720Z,3.67
2019-03-31T18:39:22.602Z,3.70
2019-03-31T18:41:56.361Z,3.10
2019-03-31T18:44:30.763Z,7.15
2019-03-31T18:47:04.511Z,4.42
2019-03-31T18:49:38.005Z,3.85
2019-03-31T18:52:11.900Z,4.28
2019-03-31T18:54:45.955Z,6.17
2019-03-31T18:57:19.725Z,5.80
2019-03-31T18:59:53.525Z,4.90
2019-03-31T19:02:27.011Z,2.47
2019-03-31T19:05:00.945Z,3.05
2019-03-31T19:07:34.550Z,4.08
2019-03-31T19:10:08.358Z,3.58
2019-03-31T19:12:42.149Z,4.00
2019-03-31T19:15:16.008Z,4.67
2019-03-31T19:17:50.216Z,4.22
2019-03-31T19:20:24.504Z,3.87
2019-03-31T19:22:57.969Z,4.35
2019-03-31T19:25:32.404Z,3.83
2019-03-31T19:28:06.108Z,5.97
2019-03-31T19:30:39.638Z,9.13
2019-03-31T19:33:13.131Z,7.62
2019-03-31T19:35:46.896Z,4.05
2019-03-31T19:38:20.364Z,5.33
2019-03-31T19:41:03.889Z,3.15
2019-03-31T19:43:29.193Z,8.05
2019-03-31T19:46:05.530Z,7.70
2019-03-31T19:48:39.199Z,3.95
2019-03-31T19:51:13.233Z,4.42
2019-03-31T19:53:46.570Z,5.25
2019-03-31T19:56:20.024Z,3.87
2019-03-31T19:58:53.444Z,4.15
2019-03-31T20:01:27.037Z,5.70
2019-03-31T20:04:00.761Z,4.08
2019-03-31T20:06:34.235Z,4.37
2019-03-31T20:09:08.273Z,8.93
2019-03-31T20:11:44.394Z,4.75
2019-03-31T20:14:18.022Z,5.28
2019-03-31T20:16:51.443Z,2.45
2019-03-31T20:19:24.874Z,5.35
2019-03-31T20:21:58.421Z,3.90
2019-03-31T20:24:33.228Z,4.62
2019-03-31T20:27:07.646Z,2.75
2019-03-31T20:29:40.992Z,3.83
2019-03-31T20:32:14.427Z,5.17
2019-03-31T20:34:48.159Z,4.30
2019-03-31T20:37:21.624Z,4.17
2019-03-31T20:39:56.971Z,5.25
2019-03-31T20:42:30.398Z,3.10
2019-03-31T20:45:06.381Z,3.67
2019-03-31T20:47:39.781Z,5.20
2019-03-31T20:50:13.212Z,3.10
2019-03-31T20:52:46.615Z,1.82
2019-03-31T20:55:20.367Z,3.47
2019-03-31T20:57:53.543Z,3.77
2019-03-31T21:00:26.919Z,5.42
2019-03-31T21:03:00.337Z,2.72
2019-03-31T21:05:33.846Z,3.50
2019-03-31T21:08:07.373Z,4.75
2019-03-31T21:10:40.809Z,3.75
2019-03-31T21:13:14.246Z,4.37
2019-03-31T21:15:48.270Z,5.20
2019-03-31T21:18:21.616Z,6.72
2019-03-31T21:20:55.008Z,3.00
2019-03-31T21:23:28.377Z,3.70
2019-03-31T21:26:01.674Z,4.22
2019-03-31T21:28:35.214Z,3.67
2019-03-31T21:31:08.544Z,2.17
2019-03-31T21:33:41.955Z,3.42
2019-03-31T21:36:15.989Z,5.95
2019-03-31T21:38:49.410Z,2.72
2019-03-31T21:41:22.805Z,2.95
2019-03-31T21:43:56.233Z,3.15
2019-03-31T21:46:29.739Z,5.72
2019-03-31T21:49:03.413Z,4.80
2019-03-31T21:51:36.740Z,2.22
2019-03-31T21:54:10.145Z,7.62
2019-03-31T21:56:43.455Z,5.80
2019-03-31T21:59:17.031Z,4.83
2019-03-31T22:01:50.443Z,2.77
2019-03-31T22:04:23.765Z,5.10
2019-03-31T22:06:57.298Z,4.60
2019-03-31T22:09:31.508Z,2.65
2019-03-31T22:12:04.830Z,3.85
2019-03-31T22:14:38.226Z,4.67
2019-03-31T22:17:11.619Z,4.47
2019-03-31T22:19:44.935Z,2.90
2019-03-31T22:22:18.389Z,7.15
2019-03-31T22:24:51.713Z,6.53
2019-03-31T22:27:25.186Z,3.05
2019-03-31T22:29:58.521Z,8.53
2019-03-31T22:32:32.127Z,4.50
2019-03-31T22:35:05.502Z,8.88
2019-03-31T22:37:39.713Z,5.72
2019-03-31T22:40:13.182Z,6.00
2019-03-31T22:42:46.788Z,2.45
2019-03-31T22:45:20.203Z,4.92
2019-03-31T22:47:53.624Z,4.33
2019-03-31T22:50:27.215Z,3.27
2019-03-31T22:53:00.516Z,5.87
2019-03-31T22:55:34.031Z,4.22
2019-03-31T22:58:07.379Z,1.98
2019-03-31T23:00:40.761Z,4.12
2019-03-31T23:03:15.690Z,6.08
2019-03-31T23:05:50.680Z,8.73
2019-03-31T23:08:24.188Z,5.97
2019-03-31T23:10:57.531Z,5.90
2019-03-31T23:13:31.032Z,5.28
2019-03-31T23:16:04.524Z,7.62
2019-03-31T23:18:37.946Z,4.15
2019-03-31T23:21:11.635Z,3.35
2019-03-31T23:23:44.975Z,2.95
2019-03-31T23:26:18.404Z,3.42
2019-03-31T23:28:51.872Z,3.40
2019-03-31T23:31:25.304Z,2.05
2019-03-31T23:33:58.638Z,3.05
2019-03-31T23:36:32.453Z,3.02
2019-03-31T23:39:06.960Z,2.17
2019-03-31T23:41:40.641Z,4.95
2019-03-31T23:44:13.982Z,3.67
2019-03-31T23:46:47.513Z,5.30
2019-03-31T23:49:20.960Z,2.37
2019-03-31T23:51:54.434Z,2.25
2019-03-31T23:54:27.763Z,2.37
2019-03-31T23:57:01.096Z,2.17
2019-03-31T23:59:35.516Z,3.25
